createdAt,value
2017-03-11T00:00:12.629Z,0
2017-03-11T00:01:24.084Z,0
2017-03-11T00:02:35.546Z,0
2017-03-11T00:03:46.981Z,0
2017-03-11T00:04:58.613Z,0
2017-03-11T00:06:10.077Z,0
2017-03-11T00:07:21.703Z,0
2017-03-11T00:08:33.171Z,0
2017-03-11T00:09:44.606Z,0
2017-03-11T00:10:56.111Z,0
2017-03-11T00:12:07.577Z,0
2017-03-11T00:13:19.009Z,0
2017-03-11T00:14:30.489Z,0
2017-03-11T00:15:42.149Z,0
2017-03-11T00:16:53.601Z,0
2017-03-11T00:18:05.075Z,0
2017-03-11T00:19:16.703Z,0
2017-03-11T00:20:28.140Z,0
2017-03-11T00:21:39.576Z,0
2017-03-11T00:22:51.011Z,0
2017-03-11T00:24:02.485Z,0
2017-03-11T00:25:13.924Z,0
2017-03-11T00:26:25.371Z,0
2017-03-11T00:27:36.806Z,0
2017-03-11T00:28:48.265Z,0
2017-03-11T00:29:59.710Z,0
2017-03-11T00:31:11.395Z,0
2017-03-11T00:32:22.825Z,0
2017-03-11T00:33:34.278Z,0
2017-03-11T00:34:45.733Z,0
2017-03-11T00:35:57.183Z,0
2017-03-11T00:37:08.872Z,0
2017-03-11T00:38:20.308Z,0
2017-03-11T00:39:31.746Z,0
2017-03-11T00:40:43.412Z,0
2017-03-11T00:41:54.862Z,0
2017-03-11T00:43:06.300Z,0
2017-03-11T00:44:17.722Z,0
2017-03-11T00:45:29.185Z,0
2017-03-11T00:46:40.867Z,0
2017-03-11T00:47:52.521Z,0
2017-03-11T00:49:03.965Z,0
2017-03-11T00:50:15.401Z,0
2017-03-11T00:51:26.843Z,0
2017-03-11T00:52:38.281Z,0
2017-03-11T00:53:49.935Z,0
2017-03-11T00:55:01.372Z,0
2017-03-11T00:56:12.813Z,0
2017-03-11T00:57:24.262Z,0
2017-03-11T00:58:35.922Z,0
2017-03-11T00:59:47.380Z,0
2017-03-11T01:00:58.832Z,0
2017-03-11T01:02:10.288Z,0
2017-03-11T01:03:21.757Z,0
2017-03-11T01:04:33.591Z,0
2017-03-11T01:05:45.034Z,0
2017-03-11T01:06:56.478Z,0
2017-03-11T01:08:07.945Z,0
2017-03-11T01:09:19.383Z,0
2017-03-11T01:10:31.042Z,0
2017-03-11T01:11:42.476Z,0
2017-03-11T01:12:53.955Z,0
2017-03-11T01:14:05.402Z,0
2017-03-11T01:15:16.845Z,0
2017-03-11T01:16:28.690Z,0
2017-03-11T01:17:40.163Z,0
2017-03-11T01:18:51.800Z,0
2017-03-11T01:20:03.241Z,0
2017-03-11T01:21:14.691Z,0
2017-03-11T01:22:26.128Z,0
2017-03-11T01:23:37.563Z,0
2017-03-11T01:24:49.004Z,0
2017-03-11T01:26:00.440Z,0
2017-03-11T01:27:12.078Z,0
2017-03-11T01:28:23.520Z,0
2017-03-11T01:29:35.147Z,0
2017-03-11T01:30:46.597Z,0
2017-03-11T01:31:58.051Z,0
2017-03-11T01:33:09.509Z,0
2017-03-11T01:34:21.010Z,0
2017-03-11T01:35:32.450Z,0
2017-03-11T01:36:43.894Z,0
2017-03-11T01:37:55.340Z,0
2017-03-11T01:39:06.788Z,0
2017-03-11T01:40:18.224Z,0
2017-03-11T01:41:29.668Z,0
2017-03-11T01:42:41.140Z,0
2017-03-11T01:43:52.602Z,0
2017-03-11T01:45:04.318Z,0
2017-03-11T01:46:15.769Z,0
2017-03-11T01:47:27.218Z,0
2017-03-11T01:48:38.847Z,0
2017-03-11T01:49:50.289Z,0
2017-03-11T01:51:01.944Z,0
2017-03-11T01:52:13.386Z,0
2017-03-11T01:53:24.827Z,0
2017-03-11T01:54:36.266Z,0
2017-03-11T01:55:48.013Z,0
2017-03-11T01:56:59.436Z,0
2017-03-11T01:58:10.912Z,0
2017-03-11T01:59:22.385Z,0
2017-03-11T02:00:33.828Z,0
2017-03-11T02:01:45.275Z,0
2017-03-11T02:02:56.922Z,0
2017-03-11T02:04:08.373Z,0
2017-03-11T02:05:20.009Z,0
2017-03-11T02:06:31.441Z,0
2017-03-11T02:07:42.883Z,0
2017-03-11T02:08:54.318Z,0
2017-03-11T02:10:05.743Z,0
2017-03-11T02:11:17.239Z,0
2017-03-11T02:12:28.664Z,0
2017-03-11T02:13:40.108Z,0
2017-03-11T02:14:51.577Z,0
2017-03-11T02:16:03.003Z,0
2017-03-11T02:17:14.447Z,0
2017-03-11T02:18:25.915Z,0
2017-03-11T02:19:37.551Z,0
2017-03-11T02:20:48.992Z,0
2017-03-11T02:22:00.501Z,0
2017-03-11T02:23:11.937Z,0
2017-03-11T02:24:23.360Z,0
2017-03-11T02:25:34.816Z,0
2017-03-11T02:26:46.254Z,0
2017-03-11T02:27:57.691Z,0
2017-03-11T02:29:09.347Z,0
2017-03-11T02:30:20.814Z,0
2017-03-11T02:31:32.276Z,0
2017-03-11T02:32:43.731Z,0
2017-03-11T02:33:55.178Z,0
2017-03-11T02:35:06.616Z,0
2017-03-11T02:36:18.079Z,0
2017-03-11T02:37:29.706Z,0
2017-03-11T02:38:41.143Z,0
2017-03-11T02:39:52.588Z,0
2017-03-11T02:41:04.238Z,0
2017-03-11T02:42:15.673Z,0
2017-03-11T02:43:27.104Z,0
2017-03-11T02:44:38.562Z,0
2017-03-11T02:45:50.005Z,0
2017-03-11T02:47:01.464Z,0
2017-03-11T02:48:12.896Z,0
2017-03-11T02:49:24.340Z,0
2017-03-11T02:50:35.798Z,0
2017-03-11T02:51:47.234Z,0
2017-03-11T02:52:58.688Z,0
2017-03-11T02:54:10.117Z,0
2017-03-11T02:55:21.551Z,0
2017-03-11T02:56:33.174Z,0
2017-03-11T02:57:44.627Z,0
2017-03-11T02:58:56.082Z,0
2017-03-11T03:00:07.516Z,0
2017-03-11T03:01:19.348Z,0
2017-03-11T03:02:30.796Z,0
2017-03-11T03:03:42.240Z,0
2017-03-11T03:04:53.689Z,0
2017-03-11T03:06:05.147Z,0
2017-03-11T03:07:16.802Z,0
2017-03-11T03:08:28.488Z,0
2017-03-11T03:09:39.922Z,0
2017-03-11T03:10:51.365Z,0
2017-03-11T03:12:02.790Z,0
2017-03-11T03:13:14.218Z,0
2017-03-11T03:14:25.695Z,0
2017-03-11T03:15:37.372Z,0
2017-03-11T03:16:48.804Z,0
2017-03-11T03:18:00.233Z,0
2017-03-11T03:19:11.676Z,0
2017-03-11T03:20:23.105Z,0
2017-03-11T03:21:34.538Z,0
2017-03-11T03:22:46.179Z,0
2017-03-11T03:23:57.655Z,0
2017-03-11T03:25:09.087Z,0
2017-03-11T03:26:20.713Z,0
2017-03-11T03:27:32.142Z,0
2017-03-11T03:28:43.568Z,0
2017-03-11T03:29:55.007Z,0
2017-03-11T03:31:06.453Z,0
2017-03-11T03:32:18.121Z,0
2017-03-11T03:33:29.561Z,0
2017-03-11T03:34:41.280Z,0
2017-03-11T03:35:53.323Z,0
2017-03-11T03:37:04.974Z,0
2017-03-11T03:38:16.613Z,0
2017-03-11T03:39:28.057Z,0
2017-03-11T03:40:39.503Z,0
2017-03-11T03:41:50.950Z,0
2017-03-11T03:43:02.385Z,0
2017-03-11T03:44:13.821Z,0
2017-03-11T03:45:25.483Z,0
2017-03-11T03:46:36.931Z,0
2017-03-11T03:47:48.401Z,0
2017-03-11T03:48:59.877Z,0
2017-03-11T03:50:11.597Z,0
2017-03-11T03:51:23.249Z,0
2017-03-11T03:52:34.706Z,0
2017-03-11T03:53:46.152Z,0
2017-03-11T03:54:57.602Z,0
2017-03-11T03:56:09.047Z,0
2017-03-11T03:57:20.478Z,0
2017-03-11T03:58:32.135Z,0
2017-03-11T03:59:43.588Z,0
2017-03-11T04:00:55.089Z,0
2017-03-11T04:02:06.517Z,0
2017-03-11T04:03:17.966Z,0
2017-03-11T04:04:29.410Z,0
2017-03-11T04:05:41.056Z,0
2017-03-11T04:06:52.505Z,0
2017-03-11T04:08:03.962Z,0
2017-03-11T04:09:15.415Z,0
2017-03-11T04:10:26.929Z,0
2017-03-11T04:11:38.356Z,0
2017-03-11T04:12:49.798Z,0
2017-03-11T04:14:01.257Z,0
2017-03-11T04:15:12.722Z,0
2017-03-11T04:16:24.155Z,0
2017-03-11T04:17:35.604Z,0
2017-03-11T04:18:47.258Z,0
2017-03-11T04:19:58.898Z,0
2017-03-11T04:21:10.348Z,0
2017-03-11T04:22:21.802Z,0
2017-03-11T04:23:33.247Z,0
2017-03-11T04:24:44.684Z,0
2017-03-11T04:25:56.125Z,0
2017-03-11T04:27:07.561Z,0
2017-03-11T04:28:18.999Z,0
2017-03-11T04:29:30.452Z,0
2017-03-11T04:30:41.903Z,0
2017-03-11T04:31:53.597Z,0
2017-03-11T04:33:05.033Z,0
2017-03-11T04:34:16.682Z,0
2017-03-11T04:35:28.305Z,0
2017-03-11T04:36:39.942Z,0
2017-03-11T04:37:51.402Z,0
2017-03-11T04:39:02.833Z,0
2017-03-11T04:40:14.466Z,0
2017-03-11T04:41:25.915Z,0
2017-03-11T04:42:37.348Z,0
2017-03-11T04:43:48.823Z,0
2017-03-11T04:45:00.249Z,0
2017-03-11T04:46:11.906Z,0
2017-03-11T04:47:23.616Z,0
2017-03-11T04:48:35.283Z,0
2017-03-11T04:49:46.954Z,0
2017-03-11T04:50:58.594Z,0
2017-03-11T04:52:10.033Z,0
2017-03-11T04:53:21.673Z,0
2017-03-11T04:54:33.117Z,0
2017-03-11T04:55:44.564Z,0
2017-03-11T04:56:55.996Z,0
2017-03-11T04:58:07.824Z,0
2017-03-11T04:59:19.279Z,0
2017-03-11T05:00:30.909Z,0
2017-03-11T05:01:42.776Z,0
2017-03-11T05:02:54.270Z,0
2017-03-11T05:04:05.698Z,0
2017-03-11T05:05:17.136Z,0
2017-03-11T05:06:28.587Z,0
2017-03-11T05:07:40.044Z,0
2017-03-11T05:08:51.498Z,0
2017-03-11T05:10:03.123Z,0
2017-03-11T05:11:14.773Z,0
2017-03-11T05:12:26.205Z,0
2017-03-11T05:13:37.687Z,0
2017-03-11T05:14:49.139Z,0
2017-03-11T05:16:00.586Z,0
2017-03-11T05:17:12.030Z,0
2017-03-11T05:18:23.655Z,0
2017-03-11T05:19:35.303Z,0
2017-03-11T05:20:46.742Z,0
2017-03-11T05:21:58.183Z,0
2017-03-11T05:23:09.624Z,0
2017-03-11T05:24:21.303Z,0
2017-03-11T05:25:32.762Z,0
2017-03-11T05:26:44.419Z,0
2017-03-11T05:27:55.856Z,0
2017-03-11T05:29:07.334Z,0
2017-03-11T05:30:18.756Z,0
2017-03-11T05:31:30.197Z,0
2017-03-11T05:32:41.642Z,0
2017-03-11T05:33:53.076Z,0
2017-03-11T05:35:04.577Z,0
2017-03-11T05:36:16.031Z,0
2017-03-11T05:37:27.503Z,0
2017-03-11T05:38:39.136Z,0
2017-03-11T05:39:50.588Z,0
2017-03-11T05:41:02.050Z,0
2017-03-11T05:42:13.509Z,0
2017-03-11T05:43:24.959Z,5
2017-03-11T05:44:36.381Z,5
2017-03-11T05:45:47.853Z,5
2017-03-11T05:46:59.301Z,5
2017-03-11T05:48:10.750Z,10
2017-03-11T05:49:22.187Z,10
2017-03-11T05:50:33.647Z,10
2017-03-11T05:51:45.270Z,15
2017-03-11T05:52:56.913Z,15
2017-03-11T05:54:08.355Z,15
2017-03-11T05:55:19.990Z,20
2017-03-11T05:56:31.435Z,20
2017-03-11T05:57:42.875Z,25
2017-03-11T05:58:54.304Z,30
2017-03-11T06:00:05.767Z,30
2017-03-11T06:01:17.208Z,35
2017-03-11T06:02:28.639Z,35
2017-03-11T06:03:40.086Z,40
2017-03-11T06:04:51.533Z,45
2017-03-11T06:06:02.978Z,45
2017-03-11T06:07:14.435Z,45
2017-03-11T06:08:26.080Z,50
2017-03-11T06:09:37.506Z,55
2017-03-11T06:10:48.949Z,55
2017-03-11T06:12:00.581Z,60
2017-03-11T06:13:12.015Z,65
2017-03-11T06:14:23.881Z,65
2017-03-11T06:15:35.317Z,70
2017-03-11T06:16:46.964Z,70
2017-03-11T06:17:58.404Z,75
2017-03-11T06:19:09.864Z,75
2017-03-11T06:20:21.502Z,80
2017-03-11T06:21:32.929Z,85
2017-03-11T06:22:44.431Z,90
2017-03-11T06:23:55.893Z,95
2017-03-11T06:25:07.352Z,100
2017-03-11T06:26:18.800Z,100
2017-03-11T06:27:30.226Z,100
2017-03-11T06:28:41.666Z,110
2017-03-11T06:29:53.303Z,130
2017-03-11T06:31:04.950Z,135
2017-03-11T06:32:16.799Z,135
2017-03-11T06:33:28.237Z,150
2017-03-11T06:34:39.866Z,165
2017-03-11T06:35:51.709Z,175
2017-03-11T06:37:03.172Z,165
2017-03-11T06:38:14.913Z,170
2017-03-11T06:39:26.357Z,180
2017-03-11T06:40:38.019Z,170
2017-03-11T06:41:49.658Z,180
2017-03-11T06:43:01.090Z,185
2017-03-11T06:44:12.745Z,185
2017-03-11T06:45:24.172Z,190
2017-03-11T06:46:35.820Z,195
2017-03-11T06:47:47.464Z,205
2017-03-11T06:48:58.910Z,200
2017-03-11T06:50:10.588Z,195
2017-03-11T06:51:22.047Z,205
2017-03-11T06:52:33.476Z,220
2017-03-11T06:53:44.921Z,220
2017-03-11T06:54:56.580Z,225
2017-03-11T06:56:08.026Z,265
2017-03-11T06:57:19.481Z,315
2017-03-11T06:58:30.931Z,320
2017-03-11T06:59:42.563Z,335
2017-03-11T07:00:54.413Z,350
2017-03-11T07:02:06.085Z,295
2017-03-11T07:03:17.527Z,335
2017-03-11T07:04:29.168Z,365
2017-03-11T07:05:40.625Z,430
2017-03-11T07:06:52.054Z,435
2017-03-11T07:08:03.479Z,315
2017-03-11T07:09:14.936Z,420
2017-03-11T07:10:26.364Z,530
2017-03-11T07:11:37.813Z,590
2017-03-11T07:12:49.472Z,345
2017-03-11T07:14:00.920Z,425
2017-03-11T07:15:12.371Z,630
2017-03-11T07:16:23.857Z,970
2017-03-11T07:17:35.313Z,1100
2017-03-11T07:18:46.745Z,1200
2017-03-11T07:19:58.685Z,980
2017-03-11T07:21:10.534Z,845
2017-03-11T07:22:21.963Z,920
2017-03-11T07:23:33.416Z,995
2017-03-11T07:24:45.064Z,1170
2017-03-11T07:25:56.495Z,1245
2017-03-11T07:27:07.954Z,1310
2017-03-11T07:28:19.434Z,1230
2017-03-11T07:29:30.893Z,1335
2017-03-11T07:30:42.395Z,1285
2017-03-11T07:31:53.844Z,940
2017-03-11T07:33:05.275Z,950
2017-03-11T07:34:16.720Z,785
2017-03-11T07:35:28.191Z,980
2017-03-11T07:36:39.634Z,1520
2017-03-11T07:37:51.062Z,1435
2017-03-11T07:39:02.512Z,1085
2017-03-11T07:40:14.175Z,740
2017-03-11T07:41:25.657Z,760
2017-03-11T07:42:37.332Z,785
2017-03-11T07:43:48.975Z,1275
2017-03-11T07:45:00.416Z,1470
2017-03-11T07:46:12.057Z,1270
2017-03-11T07:47:23.523Z,1055
2017-03-11T07:48:34.963Z,1075
2017-03-11T07:49:46.617Z,1080
2017-03-11T07:50:58.299Z,1375
2017-03-11T07:52:09.804Z,1525
2017-03-11T07:53:21.449Z,1070
2017-03-11T07:54:33.105Z,930
2017-03-11T07:55:44.746Z,925
2017-03-11T07:56:56.393Z,1100
2017-03-11T07:58:08.037Z,1275
2017-03-11T07:59:19.481Z,1410
2017-03-11T08:00:30.939Z,1420
2017-03-11T08:01:42.620Z,1740
2017-03-11T08:02:54.165Z,1895
2017-03-11T08:04:05.831Z,1620
2017-03-11T08:05:17.473Z,1740
2017-03-11T08:06:28.926Z,1755
2017-03-11T08:07:40.390Z,1875
2017-03-11T08:08:51.846Z,2300
2017-03-11T08:10:03.308Z,2375
2017-03-11T08:11:14.795Z,2360
2017-03-11T08:12:26.237Z,2305
2017-03-11T08:13:37.695Z,2550
2017-03-11T08:14:49.562Z,2655
2017-03-11T08:16:01.012Z,2555
2017-03-11T08:17:12.461Z,2370
2017-03-11T08:18:23.929Z,2460
2017-03-11T08:19:35.591Z,2400
2017-03-11T08:20:47.048Z,2510
2017-03-11T08:21:58.512Z,2615
2017-03-11T08:23:09.971Z,2670
2017-03-11T08:24:21.441Z,2670
2017-03-11T08:25:33.121Z,2550
2017-03-11T08:26:44.586Z,2490
2017-03-11T08:27:56.263Z,2610
2017-03-11T08:29:07.730Z,2610
2017-03-11T08:30:19.387Z,2580
2017-03-11T08:31:30.851Z,2600
2017-03-11T08:32:42.327Z,2700
2017-03-11T08:33:54.047Z,2625
2017-03-11T08:35:05.520Z,2615
2017-03-11T08:36:16.986Z,2480
2017-03-11T08:37:28.653Z,2455
2017-03-11T08:38:40.107Z,2540
2017-03-11T08:39:51.566Z,2645
2017-03-11T08:41:03.261Z,2730
2017-03-11T08:42:14.740Z,2685
2017-03-11T08:43:26.403Z,2615
2017-03-11T08:44:38.097Z,2700
2017-03-11T08:45:49.564Z,2825
2017-03-11T08:47:01.061Z,2875
2017-03-11T08:48:12.734Z,2785
2017-03-11T08:49:24.249Z,2745
2017-03-11T08:50:35.713Z,2760
2017-03-11T08:51:47.201Z,2680
2017-03-11T08:52:58.875Z,2610
2017-03-11T08:54:10.336Z,2520
2017-03-11T08:55:22.045Z,2620
2017-03-11T08:56:33.527Z,2625
2017-03-11T08:57:45.004Z,2685
2017-03-11T08:58:56.480Z,2650
2017-03-11T09:00:08.002Z,2520
2017-03-11T09:01:19.679Z,2585
2017-03-11T09:02:31.135Z,2620
2017-03-11T09:03:42.785Z,2665
2017-03-11T09:04:54.254Z,2760
2017-03-11T09:06:05.745Z,2620
2017-03-11T09:07:17.212Z,2660
2017-03-11T09:08:28.698Z,2830
2017-03-11T09:09:40.156Z,2840
2017-03-11T09:10:51.615Z,2715
2017-03-11T09:12:03.081Z,2735
2017-03-11T09:13:14.562Z,2740
2017-03-11T09:14:26.014Z,2645
2017-03-11T09:15:37.521Z,2660
2017-03-11T09:16:48.983Z,2650
2017-03-11T09:18:00.458Z,2765
2017-03-11T09:19:11.938Z,2675
2017-03-11T09:20:23.635Z,2905
2017-03-11T09:21:35.088Z,2725
2017-03-11T09:22:46.760Z,2790
2017-03-11T09:23:58.234Z,2705
2017-03-11T09:25:09.727Z,2625
2017-03-11T09:26:21.444Z,2690
2017-03-11T09:27:32.933Z,2660
2017-03-11T09:28:44.587Z,2570
2017-03-11T09:29:56.258Z,2535
2017-03-11T09:31:07.912Z,2555
2017-03-11T09:32:19.396Z,2630
2017-03-11T09:33:30.890Z,2725
2017-03-11T09:34:42.365Z,2775
2017-03-11T09:35:53.832Z,2840
2017-03-11T09:37:05.531Z,2630
2017-03-11T09:38:16.999Z,2565
2017-03-11T09:39:28.496Z,2735
2017-03-11T09:40:39.973Z,2805
2017-03-11T09:41:51.480Z,2795
2017-03-11T09:43:02.937Z,2635
2017-03-11T09:44:14.381Z,2515
2017-03-11T09:45:25.860Z,2365
2017-03-11T09:46:37.514Z,2215
2017-03-11T09:47:48.984Z,2155
2017-03-11T09:49:00.656Z,2465
2017-03-11T09:50:12.112Z,2490
2017-03-11T09:51:23.603Z,2420
2017-03-11T09:52:35.369Z,2555
2017-03-11T09:53:46.830Z,2595
2017-03-11T09:54:58.281Z,2570
2017-03-11T09:56:09.759Z,2250
2017-03-11T09:57:21.238Z,2410
2017-03-11T09:58:32.895Z,2080
2017-03-11T09:59:44.778Z,2010
2017-03-11T10:00:56.275Z,2120
2017-03-11T10:02:07.753Z,2440
2017-03-11T10:03:19.934Z,2455
2017-03-11T10:04:31.392Z,2530
2017-03-11T10:05:42.889Z,2255
2017-03-11T10:06:54.790Z,2340
2017-03-11T10:08:06.266Z,2335
2017-03-11T10:09:17.748Z,2095
2017-03-11T10:10:29.651Z,1785
2017-03-11T10:11:41.101Z,2095
2017-03-11T10:12:52.564Z,2170
2017-03-11T10:14:04.091Z,2180
2017-03-11T10:15:15.574Z,2300
2017-03-11T10:16:27.037Z,2315
2017-03-11T10:17:38.496Z,2320
2017-03-11T10:18:49.973Z,2095
2017-03-11T10:20:01.478Z,2325
2017-03-11T10:21:12.951Z,2165
2017-03-11T10:22:24.630Z,2170
2017-03-11T10:23:36.093Z,2220
2017-03-11T10:24:47.561Z,2145
2017-03-11T10:25:59.022Z,2195
2017-03-11T10:27:10.501Z,2355
2017-03-11T10:28:21.968Z,2290
2017-03-11T10:29:33.453Z,2100
2017-03-11T10:30:44.928Z,2170
2017-03-11T10:31:56.396Z,2285
2017-03-11T10:33:07.855Z,2225
2017-03-11T10:34:19.338Z,2110
2017-03-11T10:35:30.857Z,2140
2017-03-11T10:36:42.364Z,2100
2017-03-11T10:37:53.842Z,1995
2017-03-11T10:39:05.501Z,2060
2017-03-11T10:40:17.292Z,2005
2017-03-11T10:41:28.750Z,1990
2017-03-11T10:42:40.430Z,1930
2017-03-11T10:43:51.904Z,2185
2017-03-11T10:45:03.370Z,2100
2017-03-11T10:46:15.045Z,2035
2017-03-11T10:47:26.500Z,2160
2017-03-11T10:48:37.944Z,2095
2017-03-11T10:49:49.443Z,2140
2017-03-11T10:51:01.098Z,2150
2017-03-11T10:52:12.553Z,2100
2017-03-11T10:53:24.214Z,2105
2017-03-11T10:54:35.665Z,1780
2017-03-11T10:55:47.152Z,2020
2017-03-11T10:56:58.633Z,2000
2017-03-11T10:58:10.087Z,2030
2017-03-11T10:59:21.563Z,2025
2017-03-11T11:00:33.048Z,1895
2017-03-11T11:01:44.528Z,1875
2017-03-11T11:02:55.997Z,1930
2017-03-11T11:04:07.469Z,1970
2017-03-11T11:05:18.921Z,1700
2017-03-11T11:06:30.404Z,1535
2017-03-11T11:07:41.870Z,1470
2017-03-11T11:08:53.350Z,1290
2017-03-11T11:10:04.805Z,1325
2017-03-11T11:11:16.305Z,1355
2017-03-11T11:12:27.787Z,1405
2017-03-11T11:13:39.245Z,1395
2017-03-11T11:14:50.911Z,1590
2017-03-11T11:16:02.381Z,1690
2017-03-11T11:17:13.857Z,1635
2017-03-11T11:18:25.320Z,1560
2017-03-11T11:19:36.998Z,1605
2017-03-11T11:20:48.689Z,1735
2017-03-11T11:22:00.567Z,1830
2017-03-11T11:23:12.037Z,1860
2017-03-11T11:24:23.498Z,1820
2017-03-11T11:25:34.984Z,1800
2017-03-11T11:26:46.484Z,1530
2017-03-11T11:27:58.158Z,1835
2017-03-11T11:29:09.629Z,1840
2017-03-11T11:30:21.310Z,1880
2017-03-11T11:31:32.778Z,1895
2017-03-11T11:32:44.422Z,1895
2017-03-11T11:33:56.097Z,1990
2017-03-11T11:35:07.577Z,1825
2017-03-11T11:36:19.033Z,1905
2017-03-11T11:37:30.755Z,1835
2017-03-11T11:38:42.215Z,1815
2017-03-11T11:39:53.666Z,1835
2017-03-11T11:41:05.127Z,1800
2017-03-11T11:42:16.592Z,1835
2017-03-11T11:43:28.054Z,1745
2017-03-11T11:44:39.505Z,1720
2017-03-11T11:45:50.964Z,1600
2017-03-11T11:47:02.439Z,1625
2017-03-11T11:48:13.958Z,1580
2017-03-11T11:49:25.425Z,1520
2017-03-11T11:50:36.895Z,1435
2017-03-11T11:51:48.343Z,1500
2017-03-11T11:52:59.803Z,1435
2017-03-11T11:54:11.289Z,1425
2017-03-11T11:55:22.768Z,1365
2017-03-11T11:56:34.228Z,1310
2017-03-11T11:57:45.696Z,1270
2017-03-11T11:58:57.220Z,1165
2017-03-11T12:00:08.698Z,1355
2017-03-11T12:01:20.151Z,1270
2017-03-11T12:02:31.608Z,1310
2017-03-11T12:03:43.067Z,1240
2017-03-11T12:04:54.527Z,1230
2017-03-11T12:06:05.981Z,1200
2017-03-11T12:07:17.468Z,1230
2017-03-11T12:08:28.940Z,1255
2017-03-11T12:09:40.664Z,1120
2017-03-11T12:10:52.126Z,1175
2017-03-11T12:12:03.792Z,1260
2017-03-11T12:13:15.452Z,1195
2017-03-11T12:14:26.922Z,1020
2017-03-11T12:15:38.395Z,1000
2017-03-11T12:16:49.860Z,1075
2017-03-11T12:18:01.357Z,1070
2017-03-11T12:19:12.804Z,1030
2017-03-11T12:20:24.335Z,960
2017-03-11T12:21:35.793Z,920
2017-03-11T12:22:47.284Z,945
2017-03-11T12:23:58.780Z,965
2017-03-11T12:25:10.257Z,905
2017-03-11T12:26:21.707Z,780
2017-03-11T12:27:33.161Z,780
2017-03-11T12:28:44.643Z,710
2017-03-11T12:29:56.312Z,700
2017-03-11T12:31:07.823Z,710
2017-03-11T12:32:19.283Z,700
2017-03-11T12:33:30.740Z,680
2017-03-11T12:34:42.218Z,670
2017-03-11T12:35:53.700Z,660
2017-03-11T12:37:05.165Z,595
2017-03-11T12:38:16.621Z,610
2017-03-11T12:39:28.075Z,590
2017-03-11T12:40:39.731Z,615
2017-03-11T12:41:51.458Z,630
2017-03-11T12:43:02.925Z,640
2017-03-11T12:44:14.589Z,630
2017-03-11T12:45:26.053Z,665
2017-03-11T12:46:37.840Z,710
2017-03-11T12:47:49.295Z,690
2017-03-11T12:49:00.758Z,650
2017-03-11T12:50:12.209Z,690
2017-03-11T12:51:23.860Z,655
2017-03-11T12:52:35.318Z,610
2017-03-11T12:53:46.781Z,615
2017-03-11T12:54:58.224Z,630
2017-03-11T12:56:09.692Z,685
2017-03-11T12:57:21.134Z,685
2017-03-11T12:58:32.608Z,645
2017-03-11T12:59:44.269Z,635
2017-03-11T13:00:55.921Z,625
2017-03-11T13:02:07.429Z,575
2017-03-11T13:03:19.115Z,580
2017-03-11T13:04:30.564Z,590
2017-03-11T13:05:42.036Z,590
2017-03-11T13:06:53.493Z,570
2017-03-11T13:08:04.964Z,565
2017-03-11T13:09:16.429Z,555
2017-03-11T13:10:27.873Z,535
2017-03-11T13:11:39.347Z,515
2017-03-11T13:12:50.995Z,515
2017-03-11T13:14:02.641Z,495
2017-03-11T13:15:14.104Z,505
2017-03-11T13:16:25.748Z,505
2017-03-11T13:17:37.694Z,485
2017-03-11T13:18:49.178Z,465
2017-03-11T13:20:00.845Z,460
2017-03-11T13:21:12.309Z,465
2017-03-11T13:22:23.761Z,485
2017-03-11T13:23:35.236Z,505
2017-03-11T13:24:46.680Z,500
2017-03-11T13:25:58.143Z,490
2017-03-11T13:27:09.812Z,480
2017-03-11T13:28:21.486Z,480
2017-03-11T13:29:32.946Z,455
2017-03-11T13:30:44.606Z,470
2017-03-11T13:31:56.108Z,475
2017-03-11T13:33:07.563Z,480
2017-03-11T13:34:19.012Z,465
2017-03-11T13:35:30.464Z,445
2017-03-11T13:36:42.136Z,435
2017-03-11T13:37:54.088Z,435
2017-03-11T13:39:05.541Z,445
2017-03-11T13:40:16.981Z,445
2017-03-11T13:41:28.431Z,445
2017-03-11T13:42:40.079Z,440
2017-03-11T13:43:51.539Z,435
2017-03-11T13:45:02.980Z,435
2017-03-11T13:46:14.638Z,420
2017-03-11T13:47:26.309Z,420
2017-03-11T13:48:37.965Z,395
2017-03-11T13:49:49.615Z,410
2017-03-11T13:51:01.074Z,415
2017-03-11T13:52:12.723Z,405
2017-03-11T13:53:24.412Z,405
2017-03-11T13:54:35.876Z,400
2017-03-11T13:55:47.312Z,405
2017-03-11T13:56:58.784Z,415
2017-03-11T13:58:10.224Z,395
2017-03-11T13:59:21.661Z,395
2017-03-11T14:00:33.131Z,395
2017-03-11T14:01:44.587Z,400
2017-03-11T14:02:56.281Z,395
2017-03-11T14:04:07.787Z,405
2017-03-11T14:05:19.266Z,400
2017-03-11T14:06:30.943Z,390
2017-03-11T14:07:42.389Z,390
2017-03-11T14:08:53.856Z,370
2017-03-11T14:10:05.310Z,370
2017-03-11T14:11:16.957Z,370
2017-03-11T14:12:28.825Z,370
2017-03-11T14:13:40.283Z,365
2017-03-11T14:14:51.732Z,375
2017-03-11T14:16:03.193Z,365
2017-03-11T14:17:14.644Z,365
2017-03-11T14:18:26.093Z,365
2017-03-11T14:19:37.543Z,370
2017-03-11T14:20:48.980Z,360
2017-03-11T14:22:00.445Z,355
2017-03-11T14:23:12.103Z,340
2017-03-11T14:24:23.538Z,335
2017-03-11T14:25:35.030Z,330
2017-03-11T14:26:46.497Z,330
2017-03-11T14:27:58.143Z,325
2017-03-11T14:29:09.823Z,325
2017-03-11T14:30:21.276Z,320
2017-03-11T14:31:32.938Z,315
2017-03-11T14:32:44.375Z,310
2017-03-11T14:33:55.817Z,300
2017-03-11T14:35:07.292Z,300
2017-03-11T14:36:18.789Z,290
2017-03-11T14:37:30.457Z,290
2017-03-11T14:38:42.105Z,285
2017-03-11T14:39:53.550Z,280
2017-03-11T14:41:05.001Z,275
2017-03-11T14:42:16.465Z,270
2017-03-11T14:43:27.902Z,265
2017-03-11T14:44:39.346Z,270
2017-03-11T14:45:50.810Z,265
2017-03-11T14:47:02.325Z,265
2017-03-11T14:48:13.754Z,270
2017-03-11T14:49:25.201Z,265
2017-03-11T14:50:36.669Z,260
2017-03-11T14:51:48.136Z,260
2017-03-11T14:52:59.585Z,260
2017-03-11T14:54:11.040Z,245
2017-03-11T14:55:22.493Z,245
2017-03-11T14:56:33.947Z,255
2017-03-11T14:57:45.409Z,260
2017-03-11T14:58:56.858Z,260
2017-03-11T15:00:08.331Z,260
2017-03-11T15:01:19.977Z,265
2017-03-11T15:02:31.423Z,265
2017-03-11T15:03:42.877Z,265
2017-03-11T15:04:54.561Z,270
2017-03-11T15:06:06.210Z,265
2017-03-11T15:07:17.656Z,265
2017-03-11T15:08:29.120Z,270
2017-03-11T15:09:40.784Z,265
2017-03-11T15:10:52.254Z,270
2017-03-11T15:12:03.731Z,270
2017-03-11T15:13:15.181Z,275
2017-03-11T15:14:26.875Z,265
2017-03-11T15:15:38.345Z,265
2017-03-11T15:16:49.793Z,265
2017-03-11T15:18:01.314Z,265
2017-03-11T15:19:12.762Z,260
2017-03-11T15:20:24.231Z,255
2017-03-11T15:21:35.688Z,245
2017-03-11T15:22:47.153Z,245
2017-03-11T15:23:58.619Z,240
2017-03-11T15:25:10.271Z,240
2017-03-11T15:26:21.765Z,245
2017-03-11T15:27:33.411Z,235
2017-03-11T15:28:45.074Z,235
2017-03-11T15:29:56.729Z,235
2017-03-11T15:31:08.180Z,230
2017-03-11T15:32:19.823Z,230
2017-03-11T15:33:31.277Z,230
2017-03-11T15:34:42.730Z,225
2017-03-11T15:35:54.190Z,225
2017-03-11T15:37:05.872Z,220
2017-03-11T15:38:17.338Z,220
2017-03-11T15:39:28.792Z,215
2017-03-11T15:40:40.451Z,215
2017-03-11T15:41:51.918Z,210
2017-03-11T15:43:03.574Z,210
2017-03-11T15:44:15.335Z,205
2017-03-11T15:45:26.781Z,205
2017-03-11T15:46:38.236Z,200
2017-03-11T15:47:49.740Z,195
2017-03-11T15:49:01.209Z,195
2017-03-11T15:50:12.649Z,195
2017-03-11T15:51:24.113Z,190
2017-03-11T15:52:35.567Z,190
2017-03-11T15:53:47.056Z,190
2017-03-11T15:54:58.519Z,185
2017-03-11T15:56:09.986Z,185
2017-03-11T15:58:31.472Z,180
2017-03-11T15:59:43.172Z,175
2017-03-11T16:00:54.622Z,170
2017-03-11T16:02:06.079Z,170
2017-03-11T16:03:18.479Z,165
2017-03-11T16:04:29.953Z,160
2017-03-11T16:05:41.414Z,155
2017-03-11T16:06:53.087Z,155
2017-03-11T16:08:04.541Z,150
2017-03-11T16:09:15.986Z,150
2017-03-11T16:10:27.432Z,150
2017-03-11T16:11:39.280Z,145
2017-03-11T16:12:50.946Z,145
2017-03-11T16:14:02.586Z,140
2017-03-11T16:15:14.332Z,140
2017-03-11T16:16:25.997Z,135
2017-03-11T16:17:37.460Z,130
2017-03-11T16:18:49.106Z,130
2017-03-11T16:20:00.557Z,125
2017-03-11T16:21:12.021Z,125
2017-03-11T16:22:23.495Z,120
2017-03-11T16:23:35.167Z,115
2017-03-11T16:24:46.612Z,115
2017-03-11T16:25:58.123Z,110
2017-03-11T16:27:09.801Z,110
2017-03-11T16:28:21.279Z,105
2017-03-11T16:29:32.754Z,100
2017-03-11T16:30:44.216Z,100
2017-03-11T16:31:56.077Z,95
2017-03-11T16:33:07.521Z,95
2017-03-11T16:34:18.958Z,95
2017-03-11T16:35:30.406Z,95
2017-03-11T16:36:41.914Z,90
2017-03-11T16:37:53.371Z,85
2017-03-11T16:39:05.026Z,85
2017-03-11T16:40:16.470Z,80
2017-03-11T16:41:27.943Z,80